Time;durP1;ratioP1;P1;durP2;ratioP2;P2;SDS_P1;SDS_P2;PMS_P1;PMS_P2;Temp;Humidity;BMP_temperature;BMP_pressure;BME280_temperature;BME280_humidity;BME280_pressure;Samples;Min_cycle;Max_cycle;Signal;HPM_P1;HPM_P2
2021/06/26 00:02:32;;;;;;;1.08;0.75;;;23.90;54.20;;;;;;6235001;28;20065;-68
2021/06/26 00:05:32;;;;;;;0.85;0.85;;;23.90;54.20;;;;;;6232527;28;20514;-67
2021/06/26 00:08:33;;;;;;;0.80;0.80;;;23.80;54.20;;;;;;6213160;28;20030;-69
2021/06/26 00:11:34;;;;;;;1.40;0.55;;;23.90;54.20;;;;;;6224478;28;20372;-67
2021/06/26 00:14:34;;;;;;;0.75;0.70;;;23.90;54.20;;;;;;6212849;28;20026;-67
2021/06/26 00:17:36;;;;;;;0.70;0.65;;;23.90;54.30;;;;;;6213025;28;20502;-67
2021/06/26 00:20:37;;;;;;;1.02;0.80;;;23.90;54.20;;;;;;6213081;28;20124;-67
2021/06/26 00:23:38;;;;;;;1.02;0.70;;;23.90;54.20;;;;;;6212641;28;20034;-67
2021/06/26 00:26:39;;;;;;;0.77;0.70;;;23.90;54.30;;;;;;6212451;28;20061;-68
2021/06/26 00:29:40;;;;;;;0.80;0.70;;;23.90;54.30;;;;;;6212482;28;20034;-69
2021/06/26 00:32:42;;;;;;;1.00;0.90;;;23.90;54.20;;;;;;6211186;28;20118;-68
2021/06/26 00:35:42;;;;;;;0.70;0.70;;;23.90;54.30;;;;;;6212387;28;20022;-67
2021/06/26 00:38:43;;;;;;;1.20;0.80;;;23.90;54.20;;;;;;6212175;28;20071;-67
2021/06/26 00:41:43;;;;;;;0.90;0.80;;;23.90;54.30;;;;;;6212391;28;20037;-68
2021/06/26 00:44:44;;;;;;;1.10;1.00;;;23.90;54.30;;;;;;6211911;28;20083;-68
2021/06/26 00:47:46;;;;;;;0.60;0.60;;;23.90;54.90;;;;;;6229908;28;20491;-68
2021/06/26 00:50:47;;;;;;;0.60;0.60;;;23.80;54.20;;;;;;6236224;28;20108;-67
2021/06/26 00:53:48;;;;;;;0.80;0.70;;;23.90;54.30;;;;;;6223958;28;20403;-68
2021/06/26 00:56:49;;;;;;;0.77;0.70;;;23.90;54.30;;;;;;6255450;28;20035;-67
2021/06/26 00:59:50;;;;;;;0.70;0.70;;;23.90;54.30;;;;;;6338584;28;20424;-68
2021/06/26 01:02:51;;;;;;;0.95;0.80;;;23.80;54.20;;;;;;6255417;28;20113;-67
2021/06/26 01:05:52;;;;;;;0.80;0.80;;;23.80;54.20;;;;;;6210582;28;20055;-67
2021/06/26 01:08:52;;;;;;;0.80;0.80;;;23.80;54.20;;;;;;6212015;28;20098;-67
2021/06/26 01:11:57;;;;;;;0.68;0.68;;;23.90;54.30;;;;;;6274607;28;20517;-68
2021/06/26 01:14:58;;;;;;;1.00;0.70;;;23.90;54.30;;;;;;6211824;28;20033;-68
2021/06/26 01:17:59;;;;;;;0.88;0.75;;;23.90;54.30;;;;;;6224007;28;20053;-67
2021/06/26 01:20:59;;;;;;;0.90;0.80;;;23.80;54.20;;;;;;6236498;28;20026;-67
2021/06/26 01:24:00;;;;;;;0.75;0.70;;;23.90;54.30;;;;;;6214341;28;20026;-67
2021/06/26 01:27:01;;;;;;;0.68;0.68;;;23.80;54.20;;;;;;6234141;28;20024;-67
2021/06/26 01:30:03;;;;;;;0.70;0.70;;;23.80;54.20;;;;;;6339210;28;20046;-67
2021/06/26 01:33:04;;;;;;;1.00;0.90;;;23.80;54.20;;;;;;6275521;28;20097;-69
2021/06/26 01:36:05;;;;;;;0.70;0.70;;;23.90;54.30;;;;;;6211206;28;20038;-66
2021/06/26 01:39:05;;;;;;;1.05;0.93;;;23.80;54.20;;;;;;6231398;28;20030;-67
2021/06/26 01:42:07;;;;;;;0.65;0.65;;;23.80;55.00;;;;;;6235732;28;20541;-68
2021/06/26 01:45:09;;;;;;;0.85;0.80;;;23.80;54.30;;;;;;6235758;28;20105;-70
2021/06/26 01:48:09;;;;;;;0.70;0.68;;;23.80;54.30;;;;;;6224999;28;20086;-68
2021/06/26 01:51:10;;;;;;;0.60;0.60;;;23.80;54.30;;;;;;6211209;28;20023;-67
2021/06/26 01:54:13;;;;;;;0.90;0.60;;;23.80;54.30;;;;;;6210709;28;20050;-69
2021/06/26 01:57:13;;;;;;;0.93;0.82;;;23.80;54.30;;;;;;6212990;28;20101;-68
2021/06/26 02:00:15;;;;;;;0.80;0.80;;;23.80;54.20;;;;;;6235752;28;20085;-68
2021/06/26 02:03:16;;;;;;;0.57;0.52;;;23.90;54.30;;;;;;6235471;28;20680;-67
2021/06/26 02:06:16;;;;;;;1.00;0.85;;;23.90;54.30;;;;;;6235556;28;20025;-67
2021/06/26 02:09:17;;;;;;;0.80;0.63;;;23.80;54.30;;;;;;6235280;28;20032;-67
2021/06/26 02:12:17;;;;;;;0.60;0.60;;;23.90;54.30;;;;;;6214210;28;20101;-68
2021/06/26 02:15:18;;;;;;;0.65;0.65;;;23.90;54.30;;;;;;6333073;28;20038;-67
2021/06/26 02:18:19;;;;;;;0.80;0.73;;;23.90;54.30;;;;;;6319842;28;20056;-68
2021/06/26 02:21:19;;;;;;;0.70;0.70;;;23.90;54.30;;;;;;6239476;28;20038;-67
2021/06/26 02:24:20;;;;;;;0.70;0.52;;;23.80;54.30;;;;;;6238104;28;20040;-67
2021/06/26 02:27:21;;;;;;;0.65;0.60;;;23.90;54.40;;;;;;6239842;28;20524;-69
2021/06/26 02:30:21;;;;;;;0.75;0.63;;;23.80;54.30;;;;;;6218502;28;20026;-67
2021/06/26 02:33:22;;;;;;;0.63;0.63;;;23.80;54.30;;;;;;6218214;28;20026;-67
2021/06/26 02:36:23;;;;;;;0.90;0.77;;;23.90;54.40;;;;;;6239358;28;20021;-67
2021/06/26 02:39:23;;;;;;;0.65;0.60;;;23.80;54.30;;;;;;6227283;28;20083;-68
2021/06/26 02:42:24;;;;;;;0.60;0.55;;;23.90;54.30;;;;;;6214412;28;20026;-67
2021/06/26 02:45:25;;;;;;;0.85;0.80;;;23.80;54.30;;;;;;6214517;28;20404;-66
2021/06/26 02:48:26;;;;;;;0.80;0.60;;;23.90;54.40;;;;;;6214262;28;20030;-67
2021/06/26 02:51:27;;;;;;;0.63;0.57;;;23.80;54.30;;;;;;6214358;28;20037;-67
2021/06/26 02:54:28;;;;;;;0.65;0.65;;;23.90;54.40;;;;;;6213958;28;20057;-67
2021/06/26 02:57:28;;;;;;;0.65;0.65;;;23.90;54.40;;;;;;6246477;28;20028;-67
2021/06/26 03:00:29;;;;;;;0.90;0.60;;;23.80;54.30;;;;;;6215141;28;20022;-67
2021/06/26 03:03:30;;;;;;;0.80;0.55;;;23.90;54.30;;;;;;6339131;28;20038;-68
2021/06/26 03:06:30;;;;;;;2.25;0.77;;;23.90;54.40;;;;;;6214165;28;20041;-67
2021/06/26 03:09:31;;;;;;;0.70;0.68;;;23.90;55.10;;;;;;6214122;28;20030;-67
2021/06/26 03:12:31;;;;;;;0.85;0.60;;;23.90;54.40;;;;;;6214020;28;20026;-67
2021/06/26 03:15:32;;;;;;;0.65;0.63;;;23.80;54.30;;;;;;6213994;28;20133;-67
2021/06/26 03:18:35;;;;;;;0.70;0.70;;;23.90;54.40;;;;;;6214199;28;20018;-67
2021/06/26 03:21:35;;;;;;;0.70;0.60;;;23.80;54.40;;;;;;6212717;28;20086;-66
2021/06/26 03:24:36;;;;;;;0.52;0.52;;;23.80;54.30;;;;;;6237639;28;20025;-67
2021/06/26 03:27:37;;;;;;;0.80;0.80;;;23.90;54.40;;;;;;6238001;28;20034;-66
2021/06/26 03:30:38;;;;;;;1.05;0.70;;;23.90;54.40;;;;;;6238062;28;20036;-67
2021/06/26 03:33:39;;;;;;;0.98;0.68;;;23.90;54.40;;;;;;6236750;28;20521;-67
2021/06/26 03:36:40;;;;;;;0.50;0.50;;;23.80;54.40;;;;;;6219271;28;20041;-67
2021/06/26 03:39:41;;;;;;;0.82;0.68;;;23.80;54.30;;;;;;6213307;28;20368;-67
2021/06/26 03:42:42;;;;;;;0.65;0.65;;;23.80;54.40;;;;;;6213448;28;20059;-67
2021/06/26 03:45:43;;;;;;;0.75;0.60;;;23.80;54.40;;;;;;6213245;28;20037;-67
2021/06/26 03:48:45;;;;;;;0.95;0.85;;;23.90;54.40;;;;;;6213346;28;20026;-69
2021/06/26 03:51:45;;;;;;;0.60;0.60;;;23.80;54.30;;;;;;6213273;28;20030;-70
2021/06/26 03:54:46;;;;;;;0.70;0.70;;;23.90;54.40;;;;;;6213181;28;20086;-67
2021/06/26 03:57:46;;;;;;;0.60;0.60;;;23.90;54.40;;;;;;6213680;28;20020;-67
2021/06/26 04:00:48;;;;;;;0.77;0.77;;;23.80;54.40;;;;;;6213001;28;20463;-67
2021/06/26 04:03:49;;;;;;;0.80;0.63;;;23.90;54.40;;;;;;6212073;28;20034;-68
2021/06/26 04:06:49;;;;;;;0.80;0.60;;;23.80;54.40;;;;;;6295169;28;20068;-67
2021/06/26 04:09:50;;;;;;;0.50;0.50;;;23.90;54.40;;;;;;6341058;28;20028;-67
2021/06/26 04:12:51;;;;;;;0.70;0.70;;;23.80;54.40;;;;;;6242141;28;20026;-68
2021/06/26 04:15:51;;;;;;;0.70;0.70;;;23.90;54.40;;;;;;6234943;28;20494;-64
2021/06/26 04:18:52;;;;;;;0.55;0.43;;;23.90;54.40;;;;;;6237576;28;20034;-69
2021/06/26 04:21:52;;;;;;;0.68;0.68;;;23.80;54.40;;;;;;6237254;28;20024;-67
2021/06/26 04:24:53;;;;;;;0.68;0.60;;;23.90;54.40;;;;;;6237246;28;20034;-68
2021/06/26 04:27:54;;;;;;;1.13;0.73;;;23.80;54.40;;;;;;6237071;28;20108;-68
2021/06/26 04:30:55;;;;;;;0.93;0.70;;;23.90;54.40;;;;;;6232307;28;20022;-67
2021/06/26 04:33:56;;;;;;;0.60;0.60;;;23.80;54.40;;;;;;6212494;28;20098;-67
2021/06/26 04:36:57;;;;;;;0.70;0.63;;;23.90;54.40;;;;;;6223973;28;20036;-67
2021/06/26 04:39:57;;;;;;;0.70;0.70;;;23.90;54.40;;;;;;6237069;28;20057;-68
2021/06/26 04:42:58;;;;;;;0.90;0.60;;;23.80;54.40;;;;;;6236834;28;20134;-67
2021/06/26 04:45:58;;;;;;;0.60;0.60;;;23.80;54.40;;;;;;6236998;28;20025;-67
2021/06/26 04:48:59;;;;;;;0.77;0.75;;;23.80;54.40;;;;;;6249123;28;20028;-66
2021/06/26 04:52:00;;;;;;;0.47;0.40;;;23.90;54.40;;;;;;6283564;28;20121;-68
2021/06/26 04:55:02;;;;;;;0.57;0.57;;;23.80;55.10;;;;;;6211854;28;20052;-68
2021/06/26 04:58:03;;;;;;;0.60;0.60;;;23.80;54.40;;;;;;6212245;28;20184;-67
2021/06/26 05:01:04;;;;;;;0.55;0.52;;;23.90;54.50;;;;;;6211178;28;20468;-67
2021/06/26 05:04:05;;;;;;;0.90;0.77;;;23.90;54.40;;;;;;6212105;28;20037;-67
2021/06/26 05:07:05;;;;;;;0.70;0.70;;;23.90;54.40;;;;;;6211940;28;20034;-68
2021/06/26 05:10:06;;;;;;;0.63;0.60;;;23.90;54.40;;;;;;6227375;28;20019;-67
2021/06/26 05:13:07;;;;;;;1.13;0.85;;;23.80;54.40;;;;;;6268753;28;20395;-67
2021/06/26 05:16:08;;;;;;;0.80;0.70;;;23.80;54.40;;;;;;6211693;28;20108;-67
2021/06/26 05:19:10;;;;;;;0.50;0.50;;;23.90;54.40;;;;;;6209927;28;20034;-69
2021/06/26 05:22:11;;;;;;;0.75;0.70;;;23.90;54.40;;;;;;6211630;28;20033;-67
2021/06/26 05:25:12;;;;;;;0.80;0.60;;;23.90;54.40;;;;;;6210103;28;20614;-68
2021/06/26 05:28:13;;;;;;;0.88;0.63;;;23.80;54.40;;;;;;6223475;28;20074;-68
2021/06/26 05:31:14;;;;;;;0.80;0.50;;;23.80;54.40;;;;;;6235769;28;20572;-67
2021/06/26 05:34:15;;;;;;;0.73;0.70;;;23.90;54.50;;;;;;6215436;28;20428;-68
2021/06/26 05:37:15;;;;;;;0.70;0.70;;;23.90;54.50;;;;;;6214319;28;20017;-67
2021/06/26 05:40:16;;;;;;;0.55;0.55;;;23.90;54.50;;;;;;6235638;28;20068;-68
2021/06/26 05:43:17;;;;;;;0.85;0.70;;;23.80;54.40;;;;;;6224703;28;20031;-67
2021/06/26 05:46:17;;;;;;;0.77;0.73;;;23.90;54.40;;;;;;6211258;28;20075;-68
2021/06/26 05:49:18;;;;;;;0.40;0.40;;;23.90;54.50;;;;;;6233478;28;20489;-67
2021/06/26 05:52:18;;;;;;;0.57;0.55;;;23.80;54.40;;;;;;6239119;28;20056;-67
2021/06/26 05:55:20;;;;;;;0.95;0.65;;;23.90;54.50;;;;;;6215405;28;20025;-69
2021/06/26 05:58:21;;;;;;;0.68;0.60;;;23.80;54.40;;;;;;6215374;28;20026;-67
2021/06/26 06:01:21;;;;;;;0.50;0.50;;;23.90;54.50;;;;;;6214986;28;20021;-67
2021/06/26 06:04:22;;;;;;;0.82;0.75;;;23.90;54.50;;;;;;6214974;28;20026;-67
2021/06/26 06:07:22;;;;;;;0.40;0.40;;;23.80;54.40;;;;;;6327846;28;20107;-69
2021/06/26 06:10:24;;;;;;;0.50;0.50;;;23.80;54.40;;;;;;6286131;28;20051;-66
2021/06/26 06:13:25;;;;;;;0.70;0.70;;;23.80;54.40;;;;;;6291933;28;20079;-68
2021/06/26 06:16:26;;;;;;;0.60;0.55;;;23.80;54.40;;;;;;6239713;28;20022;-67
2021/06/26 06:19:26;;;;;;;0.50;0.50;;;23.80;55.10;;;;;;6303717;28;20016;-69
2021/06/26 06:22:27;;;;;;;0.70;0.65;;;23.80;54.40;;;;;;6343311;28;20051;-67
2021/06/26 06:25:27;;;;;;;0.50;0.50;;;23.80;54.50;;;;;;6343438;28;20080;-68
2021/06/26 06:28:28;;;;;;;0.63;0.50;;;23.80;54.40;;;;;;6318600;28;20030;-70
2021/06/26 06:31:29;;;;;;;0.50;0.50;;;23.90;54.50;;;;;;6239282;28;20571;-67
2021/06/26 06:34:29;;;;;;;0.40;0.40;;;23.80;54.40;;;;;;6225380;28;20018;-67
2021/06/26 06:37:30;;;;;;;0.45;0.40;;;23.80;54.40;;;;;;6214751;28;20026;-66
2021/06/26 06:40:31;;;;;;;0.70;0.60;;;23.90;54.50;;;;;;6214270;28;20713;-69
2021/06/26 06:43:31;;;;;;;1.20;0.75;;;23.80;54.40;;;;;;6218299;28;20021;-69
2021/06/26 06:46:32;;;;;;;0.40;0.40;;;23.90;54.50;;;;;;6239112;28;20022;-68
2021/06/26 06:49:33;;;;;;;0.50;0.50;;;23.90;54.50;;;;;;6227176;28;20025;-67
2021/06/26 06:52:35;;;;;;;0.73;0.55;;;23.90;54.50;;;;;;6213081;28;20042;-68
2021/06/26 06:55:36;;;;;;;0.82;0.70;;;23.80;54.40;;;;;;6233629;28;20419;-67
2021/06/26 06:58:37;;;;;;;0.50;0.50;;;23.80;54.40;;;;;;6238218;28;20113;-68
2021/06/26 07:01:37;;;;;;;0.50;0.50;;;23.90;54.50;;;;;;6238798;28;20017;-68
2021/06/26 07:04:38;;;;;;;0.52;0.52;;;23.80;54.50;;;;;;6228444;28;20108;-68
2021/06/26 07:07:39;;;;;;;0.60;0.60;;;23.80;54.50;;;;;;6214217;28;20052;-68
2021/06/26 07:10:39;;;;;;;0.60;0.60;;;23.80;54.50;;;;;;6213907;28;20057;-67
2021/06/26 07:13:40;;;;;;;0.52;0.52;;;23.80;54.50;;;;;;6213908;28;20492;-69
2021/06/26 07:16:40;;;;;;;0.60;0.60;;;23.80;54.50;;;;;;6235159;28;20116;-69
2021/06/26 07:19:41;;;;;;;0.55;0.55;;;23.80;54.40;;;;;;6233693;28;20034;-68
2021/06/26 07:22:41;;;;;;;0.68;0.60;;;23.80;54.40;;;;;;6339189;28;20027;-67
2021/06/26 07:25:42;;;;;;;0.45;0.45;;;23.90;54.60;;;;;;6277803;28;20030;-67
2021/06/26 07:28:43;;;;;;;0.55;0.55;;;23.90;54.50;;;;;;6213617;28;20494;-68
2021/06/26 07:31:44;;;;;;;0.60;0.50;;;23.80;54.40;;;;;;6213623;28;20060;-67
2021/06/26 07:34:44;;;;;;;0.45;0.45;;;23.80;54.50;;;;;;6216131;28;20500;-68
2021/06/26 07:37:45;;;;;;;0.45;0.43;;;23.80;54.50;;;;;;6238340;28;20078;-67
2021/06/26 07:40:45;;;;;;;0.30;0.30;;;23.90;54.50;;;;;;6238139;28;20026;-69
2021/06/26 07:43:46;;;;;;;0.52;0.52;;;23.90;54.50;;;;;;6237750;28;20089;-67
2021/06/26 07:46:47;;;;;;;0.75;0.50;;;23.90;54.50;;;;;;6236681;28;20021;-67
2021/06/26 07:49:48;;;;;;;0.50;0.50;;;23.90;54.50;;;;;;6237607;28;20033;-67
2021/06/26 07:52:48;;;;;;;0.57;0.50;;;23.90;54.50;;;;;;6231965;28;20515;-68
2021/06/26 07:55:52;;;;;;;1.00;0.70;;;23.90;54.50;;;;;;6257777;28;20114;-67
2021/06/26 07:58:53;;;;;;;0.63;0.50;;;23.90;54.50;;;;;;6341317;28;20137;-68
2021/06/26 08:01:54;;;;;;;0.45;0.45;;;23.80;54.50;;;;;;6341351;28;20504;-68
2021/06/26 08:04:55;;;;;;;0.57;0.50;;;23.90;54.50;;;;;;6340722;28;20069;-67
2021/06/26 08:07:55;;;;;;;0.90;0.60;;;23.80;54.50;;;;;;6237899;28;20060;-68
2021/06/26 08:10:56;;;;;;;0.40;0.40;;;23.80;54.50;;;;;;6234410;28;20026;-67
2021/06/26 08:13:57;;;;;;;0.50;0.50;;;23.80;54.50;;;;;;6237135;28;20091;-67
2021/06/26 08:16:58;;;;;;;0.47;0.47;;;23.80;54.50;;;;;;6221760;28;20074;-68
2021/06/26 08:19:58;;;;;;;0.52;0.50;;;23.80;54.50;;;;;;6212623;28;20650;-67
2021/06/26 08:22:59;;;;;;;0.60;0.60;;;23.90;54.60;;;;;;6222593;28;20083;-67
2021/06/26 08:26:00;;;;;;;0.80;0.60;;;23.90;54.50;;;;;;6231496;28;20487;-67
2021/06/26 08:29:01;;;;;;;0.47;0.40;;;23.80;54.50;;;;;;6212873;28;20034;-68
2021/06/26 08:32:02;;;;;;;0.40;0.40;;;23.80;54.50;;;;;;6211260;28;20432;-67
2021/06/26 08:35:03;;;;;;;0.70;0.55;;;23.80;54.50;;;;;;6292632;28;20649;-67
2021/06/26 08:38:03;;;;;;;3.90;1.02;;;23.80;54.50;;;;;;6252528;28;20030;-67
2021/06/26 08:41:04;;;;;;;5.10;1.60;;;23.90;54.80;;;;;;6253293;28;20453;-68
2021/06/26 08:44:06;;;;;;;2.72;1.65;;;23.90;54.00;;;;;;6229769;28;20053;-69
2021/06/26 08:47:08;;;;;;;1.35;1.10;;;23.80;52.80;;;;;;6235153;28;20033;-68
2021/06/26 08:50:09;;;;;;;3.38;2.40;;;23.80;52.80;;;;;;6223121;28;20071;-69
2021/06/26 08:53:10;;;;;;;4.63;2.75;;;23.80;52.50;;;;;;6255206;28;20042;-69
2021/06/26 08:56:12;;;;;;;1.90;1.20;;;23.80;52.10;;;;;;6212814;28;20534;-69
2021/06/26 08:59:13;;;;;;;2.17;1.20;;;23.80;52.60;;;;;;6211095;28;20029;-69
2021/06/26 09:02:23;;;;;;;2.85;1.98;;;23.80;52.40;;;;;;6202607;28;20022;-69
2021/06/26 09:05:28;;;;;;;2.58;1.75;;;23.80;52.30;;;;;;6285159;27;20446;-69
2021/06/26 09:08:29;;;;;;;1.35;1.15;;;23.80;52.80;;;;;;6227530;28;20033;-70
2021/06/26 09:11:30;;;;;;;2.50;2.10;;;23.80;53.10;;;;;;6211640;28;20127;-68
2021/06/26 09:14:31;;;;;;;3.25;1.80;;;23.80;52.20;;;;;;6218791;28;20657;-70
2021/06/26 09:17:33;;;;;;;2.10;1.70;;;23.80;52.40;;;;;;6237061;28;20022;-67
2021/06/26 09:20:37;;;;;;;1.90;1.25;;;23.80;52.20;;;;;;6275642;28;20029;-66
2021/06/26 09:23:38;;;;;;;2.40;1.65;;;23.80;52.60;;;;;;6254418;28;20154;-66
2021/06/26 09:26:58;;;;;;;2.22;1.80;;;23.80;52.40;;;;;;6212995;28;20022;-70
2021/06/26 09:29:59;;;;;;;2.20;1.85;;;23.80;52.80;;;;;;6231079;28;20022;-70
2021/06/26 09:33:08;;;;;;;1.88;1.40;;;23.80;52.80;;;;;;6217284;28;20147;-70
2021/06/26 09:36:11;;;;;;;1.70;1.60;;;23.80;52.90;;;;;;6214666;28;20499;-71
2021/06/26 09:39:12;;;;;;;2.08;1.70;;;23.80;53.40;;;;;;6274073;28;20052;-70
2021/06/26 09:42:19;;;;;;;2.40;1.85;;;23.90;53.30;;;;;;6228422;28;20029;-70
2021/06/26 09:45:20;;;;;;;2.03;1.60;;;23.80;53.10;;;;;;6239234;28;20522;-70
2021/06/26 09:48:21;;;;;;;3.00;1.83;;;23.80;53.10;;;;;;6239332;28;20082;-70
2021/06/26 09:51:24;;;;;;;3.15;1.50;;;23.90;53.00;;;;;;6220700;28;20108;-70
2021/06/26 09:54:29;;;;;;;1.98;1.50;;;23.80;53.00;;;;;;6233434;28;20041;-66
2021/06/26 09:57:36;;;;;;;2.35;1.75;;;23.90;52.90;;;;;;6265644;28;20083;-66
2021/06/26 10:00:40;;;;;;;3.78;2.00;;;23.80;53.40;;;;;;6228012;28;20038;-66
2021/06/26 10:03:41;;;;;;;4.68;2.20;;;23.80;52.70;;;;;;6226563;28;20179;-65
2021/06/26 10:06:43;;;;;;;2.22;1.67;;;23.90;52.60;;;;;;6236058;28;20033;-66
2021/06/26 10:09:44;;;;;;;3.42;2.35;;;23.90;52.60;;;;;;6217874;28;20026;-65
2021/06/26 10:12:45;;;;;;;3.60;2.17;;;23.90;52.50;;;;;;6321869;28;20573;-66
2021/06/26 10:15:46;;;;;;;4.18;2.20;;;24.00;52.80;;;;;;6224106;28;20109;-65
2021/06/26 10:18:47;;;;;;;2.60;1.50;;;24.00;52.90;;;;;;6259851;28;20472;-70
2021/06/26 10:21:48;;;;;;;2.42;1.73;;;24.00;53.00;;;;;;6222409;28;20623;-70
2021/06/26 10:24:49;;;;;;;3.65;1.80;;;24.00;53.20;;;;;;6230747;28;20037;-70
2021/06/26 10:28:04;;;;;;;1.90;1.70;;;24.00;53.30;;;;;;6278122;28;20043;-70
2021/06/26 10:31:11;;;;;;;2.97;2.00;;;24.00;53.20;;;;;;6228246;28;20026;-70
2021/06/26 10:34:15;;;;;;;3.00;1.58;;;24.00;53.40;;;;;;6225796;28;20288;-69
2021/06/26 10:37:21;;;;;;;2.55;1.75;;;24.00;53.40;;;;;;6219616;28;20084;-70
2021/06/26 10:40:22;;;;;;;2.55;1.80;;;24.00;53.40;;;;;;6233074;28;20047;-70
2021/06/26 10:43:31;;;;;;;2.20;1.70;;;24.00;53.50;;;;;;6244372;28;20045;-70
2021/06/26 10:46:34;;;;;;;2.70;1.98;;;23.90;53.50;;;;;;6226923;28;20040;-70
2021/06/26 10:49:35;;;;;;;2.22;1.50;;;23.90;53.50;;;;;;6222157;28;20036;-70
2021/06/26 10:52:56;;;;;;;2.55;1.83;;;23.90;53.50;;;;;;6218047;28;20065;-70
2021/06/26 10:56:03;;;;;;;2.92;1.70;;;23.90;53.50;;;;;;6265643;28;20118;-70
2021/06/26 10:59:09;;;;;;;3.30;1.75;;;23.90;53.60;;;;;;6296758;28;20033;-70
2021/06/26 11:02:09;;;;;;;2.83;1.75;;;23.90;53.60;;;;;;6201761;28;20017;-70
2021/06/26 11:05:12;;;;;;;3.83;2.38;;;23.90;53.70;;;;;;6223016;28;20455;-70
2021/06/26 11:08:21;;;;;;;3.67;2.10;;;23.90;53.70;;;;;;6228468;28;20040;-70
2021/06/26 11:11:34;;;;;;;5.13;2.17;;;23.90;54.10;;;;;;6273949;28;20028;-71
2021/06/26 11:14:35;;;;;;;3.67;2.17;;;23.90;54.00;;;;;;6206483;28;20026;-71
2021/06/26 11:17:38;;;;;;;3.13;2.03;;;23.90;53.90;;;;;;6280919;28;20086;-71
2021/06/26 11:20:39;;;;;;;3.92;1.88;;;23.90;53.90;;;;;;6230047;28;20027;-71
2021/06/26 11:23:52;;;;;;;3.13;2.00;;;23.90;53.90;;;;;;6311771;28;20019;-71
2021/06/26 11:26:55;;;;;;;4.13;2.10;;;23.90;53.90;;;;;;6248337;28;20028;-71
2021/06/26 11:30:07;;;;;;;3.25;2.10;;;23.90;53.90;;;;;;6278219;28;20024;-71
2021/06/26 11:33:07;;;;;;;3.78;2.10;;;23.90;53.90;;;;;;6237830;28;20030;-71
2021/06/26 11:36:13;;;;;;;3.45;2.00;;;23.90;54.00;;;;;;6227316;28;20052;-71
2021/06/26 11:39:19;;;;;;;4.53;2.47;;;23.90;53.90;;;;;;6215475;28;20022;-70
2021/06/26 11:42:20;;;;;;;5.07;2.47;;;23.90;53.90;;;;;;6223854;28;20065;-70
2021/06/26 11:45:38;;;;;;;3.55;2.00;;;23.90;53.90;;;;;;6217195;28;20029;-71
2021/06/26 11:48:39;;;;;;;5.32;2.58;;;23.90;54.00;;;;;;6223539;28;20046;-71
2021/06/26 11:51:39;;;;;;;5.47;2.50;;;23.90;54.00;;;;;;6243483;28;20057;-71
2021/06/26 11:54:42;;;;;;;4.68;2.17;;;23.90;54.00;;;;;;6210116;28;20538;-70
2021/06/26 11:57:42;;;;;;;5.97;2.70;;;23.90;54.00;;;;;;6231989;28;20026;-71
2021/06/26 12:00:44;;;;;;;7.10;2.45;;;23.90;54.00;;;;;;6210544;28;20033;-70
2021/06/26 12:03:44;;;;;;;6.18;2.90;;;23.90;54.00;;;;;;6223752;28;20513;-70
2021/06/26 12:06:45;;;;;;;6.70;3.28;;;23.90;54.00;;;;;;6269691;28;20025;-71
2021/06/26 12:09:47;;;;;;;6.75;2.90;;;23.90;54.00;;;;;;6264088;28;20434;-71
2021/06/26 12:12:48;;;;;;;8.00;3.80;;;23.90;54.00;;;;;;6245763;28;20031;-71
2021/06/26 12:15:49;;;;;;;9.27;4.00;;;23.90;54.10;;;;;;6313969;28;20125;-71
2021/06/26 12:19:08;;;;;;;8.63;3.80;;;23.90;54.00;;;;;;6280864;28;20018;-70
2021/06/26 12:22:09;;;;;;;9.52;3.95;;;23.90;54.10;;;;;;6236922;28;20650;-71
2021/06/26 12:25:20;;;;;;;10.50;4.32;;;23.90;54.10;;;;;;6312066;28;20027;-72
2021/06/26 12:28:22;;;;;;;10.75;5.28;;;23.90;54.10;;;;;;6244085;28;20102;-70
2021/06/26 12:31:25;;;;;;;13.02;5.75;;;23.90;54.10;;;;;;6306844;28;20396;-70
2021/06/26 12:34:25;;;;;;;14.40;6.07;;;23.90;54.10;;;;;;6265858;28;20546;-70
2021/06/26 12:37:41;;;;;;;11.85;5.18;;;23.90;54.10;;;;;;6273750;28;20124;-71
2021/06/26 12:40:42;;;;;;;;;;;23.90;54.10;;;;;;6207653;28;20050;-72
2021/06/26 12:43:43;;;;;;;14.07;5.93;;;23.90;54.10;;;;;;6219155;28;20285;-71
2021/06/26 12:46:44;;;;;;;16.92;6.53;;;23.90;54.20;;;;;;6213157;28;20019;-71
2021/06/26 12:49:48;;;;;;;15.93;6.30;;;23.90;54.10;;;;;;6223222;28;20086;-70
2021/06/26 12:52:52;;;;;;;13.07;6.13;;;23.90;54.10;;;;;;6223529;28;20053;-71
2021/06/26 12:56:21;;;;;;;12.27;6.00;;;23.90;54.10;;;;;;6287419;28;20365;-71
2021/06/26 12:59:32;;;;;;;15.70;6.75;;;23.90;54.10;;;;;;6261252;28;20051;-70
2021/06/26 13:02:37;;;;;;;16.80;7.05;;;23.80;54.10;;;;;;6315794;28;20017;-70
2021/06/26 13:05:37;;;;;;;15.67;7.43;;;23.90;54.20;;;;;;6202732;28;20502;-71
2021/06/26 13:08:52;;;;;;;17.77;7.68;;;23.80;54.10;;;;;;6218644;28;20030;-70
2021/06/26 13:11:53;;;;;;;19.65;8.05;;;23.80;54.10;;;;;;6257472;28;20083;-70
2021/06/26 13:14:59;;;;;;;23.77;9.18;;;23.90;54.20;;;;;;6227348;28;20505;-71
2021/06/26 13:18:00;;;;;;;17.60;7.70;;;23.80;54.10;;;;;;6210787;28;20030;-71
2021/06/26 13:21:09;;;;;;;15.25;6.95;;;23.80;54.10;;;;;;6210473;28;20508;-70
2021/06/26 13:24:10;;;;;;;17.17;6.93;;;23.90;54.20;;;;;;6232849;28;20721;-70
2021/06/26 13:27:11;;;;;;;18.83;7.13;;;23.90;54.30;;;;;;6214965;28;20037;-70
2021/06/26 13:30:13;;;;;;;14.45;5.95;;;23.80;54.10;;;;;;6261446;28;20060;-70
2021/06/26 13:33:15;;;;;;;14.15;5.82;;;23.90;54.20;;;;;;6260867;28;20117;-70
2021/06/26 13:36:15;;;;;;;15.52;6.80;;;23.80;54.20;;;;;;6235086;28;20109;-70
2021/06/26 13:39:16;;;;;;;12.93;5.53;;;23.80;54.20;;;;;;6221821;28;20070;-70
2021/06/26 13:42:17;;;;;;;13.48;5.88;;;23.80;54.10;;;;;;6210130;28;20056;-70
2021/06/26 13:45:17;;;;;;;12.27;5.30;;;23.80;54.20;;;;;;6265274;28;20022;-71
2021/06/26 13:48:18;;;;;;;11.23;5.13;;;23.80;54.20;;;;;;6253811;28;20103;-70
2021/06/26 13:51:22;;;;;;;11.50;5.32;;;23.80;54.20;;;;;;6266889;28;20022;-70
2021/06/26 13:54:22;;;;;;;9.88;5.20;;;23.80;54.20;;;;;;6211982;28;20418;-70
2021/06/26 13:57:23;;;;;;;12.00;5.57;;;23.80;54.20;;;;;;6208699;28;20118;-70
2021/06/26 14:00:24;;;;;;;10.30;4.85;;;23.80;54.20;;;;;;6212244;28;20030;-70
2021/06/26 14:03:24;;;;;;;12.43;5.47;;;23.80;54.20;;;;;;6226172;28;20120;-70
2021/06/26 14:06:25;;;;;;;11.35;5.03;;;23.80;54.20;;;;;;6334685;28;20426;-70
2021/06/26 14:09:27;;;;;;;10.95;4.82;;;23.80;54.20;;;;;;6263427;28;20029;-71
2021/06/26 14:12:28;;;;;;;11.77;4.63;;;23.80;54.20;;;;;;6212988;28;20087;-71
2021/06/26 14:15:28;;;;;;;12.05;4.72;;;23.80;54.20;;;;;;6214594;28;20529;-71
2021/06/26 14:18:29;;;;;;;10.35;4.90;;;23.80;54.20;;;;;;6220986;28;20032;-71
2021/06/26 14:21:30;;;;;;;8.88;4.70;;;23.80;54.20;;;;;;6239578;28;20082;-71
2021/06/26 14:24:30;;;;;;;8.52;4.47;;;23.90;54.30;;;;;;6239221;28;20109;-71
2021/06/26 14:27:31;;;;;;;9.90;4.63;;;23.90;55.00;;;;;;6237776;28;20110;-71
2021/06/26 14:30:32;;;;;;;8.07;4.00;;;23.80;54.90;;;;;;6237918;28;20105;-71
2021/06/26 14:33:33;;;;;;;6.55;3.72;;;23.80;54.20;;;;;;6258217;28;20019;-71
2021/06/26 14:36:33;;;;;;;7.93;4.30;;;23.90;54.30;;;;;;6343288;28;20042;-71
2021/06/26 14:39:34;;;;;;;9.30;4.07;;;23.80;54.20;;;;;;6279400;28;20026;-71
2021/06/26 14:42:35;;;;;;;7.65;4.00;;;23.80;54.20;;;;;;6215023;28;20589;-71
2021/06/26 14:45:36;;;;;;;9.60;4.13;;;23.90;54.30;;;;;;6234296;28;20018;-68
2021/06/26 14:48:38;;;;;;;7.72;4.20;;;23.80;54.20;;;;;;6234358;28;20438;-69
2021/06/26 14:51:38;;;;;;;7.15;3.95;;;23.80;54.20;;;;;;6212547;28;20484;-69
2021/06/26 14:54:39;;;;;;;8.38;4.18;;;23.80;54.20;;;;;;6224476;28;20040;-69
2021/06/26 14:57:40;;;;;;;8.23;3.97;;;23.80;54.20;;;;;;6238376;28;20756;-69
2021/06/26 15:00:40;;;;;;;9.45;4.38;;;23.90;54.30;;;;;;6238607;28;20029;-69
2021/06/26 15:03:41;;;;;;;8.98;4.05;;;23.90;54.30;;;;;;6237846;28;20116;-69
2021/06/26 15:06:41;;;;;;;8.63;3.95;;;23.80;54.20;;;;;;6238662;28;20042;-69
2021/06/26 15:09:42;;;;;;;8.02;3.70;;;23.80;54.20;;;;;;6257965;28;20033;-69
2021/06/26 15:12:43;;;;;;;9.52;3.70;;;23.90;54.30;;;;;;6323197;28;20033;-69
2021/06/26 15:15:43;;;;;;;8.68;4.20;;;23.80;54.20;;;;;;6238105;28;20064;-69
2021/06/26 15:18:44;;;;;;;8.85;3.92;;;23.80;54.20;;;;;;6237092;28;20074;-69
2021/06/26 15:21:44;;;;;;;7.88;3.47;;;23.80;54.20;;;;;;6237330;28;20070;-69
2021/06/26 15:24:45;;;;;;;7.30;3.42;;;23.90;54.30;;;;;;6237982;28;20029;-69
2021/06/26 15:27:46;;;;;;;8.13;3.85;;;23.80;54.30;;;;;;6271164;28;20035;-69
2021/06/26 15:30:46;;;;;;;7.65;4.00;;;23.80;54.20;;;;;;6284391;28;20026;-69
2021/06/26 15:33:47;;;;;;;7.43;3.55;;;23.90;54.30;;;;;;6238923;28;20082;-69
2021/06/26 15:36:48;;;;;;;7.57;3.95;;;23.90;54.30;;;;;;6236594;28;20014;-69
2021/06/26 15:39:49;;;;;;;6.43;3.33;;;23.90;54.30;;;;;;6236173;28;20026;-69
2021/06/26 15:42:50;;;;;;;8.95;3.72;;;23.80;54.20;;;;;;6236273;28;20025;-69
2021/06/26 15:45:52;;;;;;;10.00;3.90;;;23.90;54.30;;;;;;6237377;28;20034;-69